createdAt,value
2019-05-14T00:01:03.490Z,55.90
2019-05-14T00:03:32.269Z,55.90
2019-05-14T00:06:02.272Z,55.80
2019-05-14T00:08:31.687Z,55.60
2019-05-14T00:11:01.580Z,55.70
2019-05-14T00:13:32.187Z,56.20
2019-05-14T00:16:01.627Z,56.30
2019-05-14T00:18:31.456Z,56.60
2019-05-14T00:21:01.888Z,56.60
2019-05-14T00:23:32.090Z,56.60
2019-05-14T00:26:01.867Z,56.70
2019-05-14T00:28:31.769Z,56.70
2019-05-14T00:31:02.939Z,56.70
2019-05-14T00:33:31.892Z,56.80
2019-05-14T00:36:02.054Z,56.50
2019-05-14T00:38:31.646Z,56.70
2019-05-14T00:41:02.060Z,56.20
2019-05-14T00:43:32.397Z,56.50
2019-05-14T00:46:01.846Z,56.30
2019-05-14T00:48:31.736Z,56.30
2019-05-14T00:51:02.264Z,56.50
2019-05-14T00:53:32.160Z,56.60
2019-05-14T00:56:02.157Z,56.60
2019-05-14T00:58:32.035Z,56.60
2019-05-14T01:01:01.704Z,56.70
2019-05-14T01:03:32.452Z,56.50
2019-05-14T01:06:03.024Z,56.70
2019-05-14T01:08:32.366Z,56.20
2019-05-14T01:11:01.738Z,56.60
2019-05-14T01:13:31.239Z,56.60
2019-05-14T01:16:01.554Z,56.80
2019-05-14T01:18:32.249Z,57.50
2019-05-14T01:21:01.818Z,57.20
2019-05-14T01:23:32.308Z,57.20
2019-05-14T01:26:02.327Z,57.20
2019-05-14T01:28:32.282Z,57.40
2019-05-14T01:31:01.572Z,57.30
2019-05-14T01:33:31.880Z,57.10
2019-05-14T01:36:02.110Z,57.10
2019-05-14T01:38:31.675Z,57.30
2019-05-14T01:41:01.826Z,57.20
2019-05-14T01:43:31.650Z,57.30
2019-05-14T01:46:02.087Z,57.70
2019-05-14T01:48:31.524Z,57.20
2019-05-14T01:51:01.538Z,57.40
2019-05-14T01:53:31.299Z,57.40
2019-05-14T01:56:01.541Z,57.20
2019-05-14T01:58:31.291Z,57.10
2019-05-14T02:01:01.948Z,57.30
2019-05-14T02:03:32.285Z,57.30
2019-05-14T02:06:01.757Z,57.50
2019-05-14T02:08:32.167Z,57.50
2019-05-14T02:11:01.849Z,57.20
2019-05-14T02:13:32.217Z,57.20
2019-05-14T02:16:02.250Z,57.40
2019-05-14T02:18:31.867Z,57.40
2019-05-14T02:21:01.539Z,57.20
2019-05-14T02:23:32.024Z,56.70
2019-05-14T02:26:02.457Z,56.70
2019-05-14T02:28:31.896Z,56.70
2019-05-14T02:31:03.347Z,56.80
2019-05-14T02:33:31.810Z,56.70
2019-05-14T02:36:00.845Z,56.50
2019-05-14T02:38:30.277Z,56.30
2019-05-14T02:41:00.227Z,56.30
2019-05-14T02:43:29.715Z,56.30
2019-05-14T02:46:10.612Z,56.30
2019-05-14T02:48:29.762Z,56.30
2019-05-14T02:50:59.782Z,56.10
2019-05-14T02:53:29.800Z,55.90
2019-05-14T02:55:59.686Z,55.80
2019-05-14T02:58:29.816Z,55.90
2019-05-14T03:01:00.517Z,56.00
2019-05-14T03:03:30.147Z,55.80
2019-05-14T03:06:00.331Z,55.90
2019-05-14T03:08:30.664Z,55.80
2019-05-14T03:11:00.444Z,55.80
2019-05-14T03:13:29.984Z,55.60
2019-05-14T03:15:59.687Z,55.60
2019-05-14T03:18:29.744Z,55.60
2019-05-14T03:21:00.719Z,55.60
2019-05-14T03:23:30.498Z,55.70
2019-05-14T03:26:00.830Z,55.70
2019-05-14T03:28:30.657Z,55.90
2019-05-14T03:31:02.618Z,55.80
2019-05-14T03:33:33.065Z,55.90
2019-05-14T03:36:09.546Z,55.90
2019-05-14T03:38:32.495Z,56.00
2019-05-14T03:41:01.567Z,56.10
2019-05-14T03:43:30.756Z,56.10
2019-05-14T03:45:59.824Z,55.90
2019-05-14T03:48:29.817Z,56.00
2019-05-14T03:51:00.096Z,56.10
2019-05-14T03:53:30.078Z,56.10
2019-05-14T03:56:00.239Z,55.90
2019-05-14T03:58:30.386Z,55.90
2019-05-14T04:01:01.833Z,55.90
2019-05-14T04:03:31.990Z,55.70
2019-05-14T04:06:02.846Z,55.90
2019-05-14T04:08:33.361Z,55.60
2019-05-14T04:11:02.667Z,55.60
2019-05-14T04:13:33.499Z,55.60
2019-05-14T04:16:04.072Z,55.90
2019-05-14T04:18:40.108Z,55.80
2019-05-14T04:21:10.013Z,55.60
2019-05-14T04:23:40.634Z,55.50
2019-05-14T04:26:11.197Z,55.80
2019-05-14T04:28:43.029Z,55.80
2019-05-14T04:31:13.191Z,56.20
2019-05-14T04:33:45.683Z,56.20
2019-05-14T04:36:14.869Z,56.30
2019-05-14T04:38:51.250Z,56.20
2019-05-14T04:41:22.895Z,56.40
2019-05-14T04:43:52.014Z,56.40
2019-05-14T04:46:21.137Z,56.40
2019-05-14T04:48:51.209Z,56.40
2019-05-14T04:51:20.566Z,56.40
2019-05-14T04:53:50.432Z,56.30
2019-05-14T04:56:20.009Z,56.50
2019-05-14T04:58:50.051Z,56.40
2019-05-14T05:01:20.706Z,56.40
2019-05-14T05:03:50.655Z,56.70
2019-05-14T05:06:20.110Z,56.90
2019-05-14T05:08:49.948Z,57.20
2019-05-14T05:11:21.367Z,57.20
2019-05-14T05:13:50.090Z,57.20
2019-05-14T05:16:19.500Z,56.90
2019-05-14T05:18:49.302Z,56.90
2019-05-14T05:21:19.431Z,57.20
2019-05-14T05:23:49.399Z,57.20
2019-05-14T05:26:18.813Z,57.20
2019-05-14T05:29:02.564Z,57.60
2019-05-14T05:31:18.855Z,57.50
2019-05-14T05:33:49.035Z,57.40
2019-05-14T05:36:18.571Z,57.30
2019-05-14T05:38:49.165Z,57.60
2019-05-14T05:41:19.171Z,57.80
2019-05-14T05:43:48.649Z,57.80
2019-05-14T05:46:19.255Z,57.80
2019-05-14T05:48:48.615Z,57.70
2019-05-14T05:51:18.836Z,57.90
2019-05-14T05:53:48.597Z,58.10
2019-05-14T05:56:18.680Z,58.90
2019-05-14T05:58:48.877Z,58.30
2019-05-14T06:01:19.550Z,58.40
2019-05-14T06:03:49.332Z,58.40
2019-05-14T06:06:19.258Z,58.90
2019-05-14T06:08:49.271Z,58.50
2019-05-14T06:11:19.406Z,58.70
2019-05-14T06:13:48.873Z,58.90
2019-05-14T06:16:18.674Z,58.90
2019-05-14T06:18:48.647Z,59.10
2019-05-14T06:21:19.087Z,59.30
2019-05-14T06:23:49.309Z,59.30
2019-05-14T06:26:19.363Z,60.10
2019-05-14T06:28:49.490Z,59.60
2019-05-14T06:31:19.516Z,59.80
2019-05-14T06:33:49.075Z,59.70
2019-05-14T06:36:19.443Z,59.80
2019-05-14T06:38:49.760Z,59.90
2019-05-14T06:41:19.402Z,60.20
2019-05-14T06:43:48.985Z,60.10
2019-05-14T06:46:19.285Z,60.00
2019-05-14T06:48:49.006Z,60.50
2019-05-14T06:51:20.093Z,60.30
2019-05-14T06:53:49.860Z,60.50
2019-05-14T06:56:21.679Z,60.50
2019-05-14T06:58:50.065Z,60.80
2019-05-14T07:01:19.163Z,60.70
2019-05-14T07:03:48.989Z,60.60
2019-05-14T07:06:19.688Z,59.50
2019-05-14T07:08:52.330Z,59.00
2019-05-14T07:11:19.650Z,58.90
2019-05-14T07:13:50.064Z,59.00
2019-05-14T07:16:19.746Z,58.80
2019-05-14T07:18:53.680Z,58.10
2019-05-14T07:21:20.102Z,58.00
2019-05-14T07:23:49.299Z,57.80
2019-05-14T07:26:19.275Z,57.70
2019-05-14T07:28:49.137Z,57.50
2019-05-14T07:31:18.837Z,57.60
2019-05-14T07:33:49.336Z,57.30
2019-05-14T07:36:19.127Z,56.80
2019-05-14T07:38:49.240Z,56.90
2019-05-14T07:41:19.202Z,56.60
2019-05-14T07:43:48.687Z,56.80
2019-05-14T07:46:19.176Z,56.90
2019-05-14T07:49:04.007Z,56.80
2019-05-14T07:51:19.369Z,56.80
2019-05-14T07:53:48.913Z,56.70
2019-05-14T07:56:20.183Z,56.50
2019-05-14T07:58:49.443Z,56.50
2019-05-14T08:01:18.969Z,56.50
2019-05-14T08:03:48.838Z,56.30
2019-05-14T08:06:19.019Z,56.20
2019-05-14T08:08:49.710Z,56.10
2019-05-14T08:11:19.278Z,55.60
2019-05-14T08:13:49.318Z,55.80
2019-05-14T08:16:18.998Z,55.60
2019-05-14T08:18:48.902Z,55.80
2019-05-14T08:21:19.365Z,56.20
2019-05-14T08:23:48.842Z,55.50
2019-05-14T08:26:19.102Z,55.40
2019-05-14T08:28:48.983Z,55.30
2019-05-14T08:31:18.807Z,55.20
2019-05-14T08:33:48.933Z,54.70
2019-05-14T08:36:18.712Z,55.00
2019-05-14T08:38:49.946Z,54.90
2019-05-14T08:41:19.789Z,54.80
2019-05-14T08:43:49.298Z,54.70
2019-05-14T08:46:19.099Z,54.80
2019-05-14T08:48:49.623Z,54.70
2019-05-14T08:51:19.161Z,54.60
2019-05-14T08:53:50.288Z,54.70
2019-05-14T08:56:19.869Z,54.20
2019-05-14T08:58:49.597Z,53.90
2019-05-14T09:01:19.651Z,54.00
2019-05-14T09:03:49.598Z,54.10
2019-05-14T09:06:19.085Z,53.90
2019-05-14T09:08:49.553Z,52.90
2019-05-14T09:11:24.644Z,52.70
2019-05-14T09:13:49.948Z,53.10
2019-05-14T09:16:19.586Z,52.80
2019-05-14T09:18:49.316Z,52.60
2019-05-14T09:21:20.564Z,52.10
2019-05-14T09:23:49.330Z,52.20
2019-05-14T09:26:18.419Z,51.70
2019-05-14T09:28:48.237Z,52.10
2019-05-14T09:31:19.576Z,51.10
2019-05-14T09:33:49.407Z,51.00
2019-05-14T09:36:23.974Z,50.40
2019-05-14T09:38:51.190Z,50.60
2019-05-14T09:41:20.528Z,50.60
2019-05-14T09:43:49.537Z,50.70
2019-05-14T09:46:18.822Z,50.80
2019-05-14T09:48:48.618Z,50.00
2019-05-14T09:51:18.590Z,50.10
2019-05-14T09:53:49.066Z,49.60
2019-05-14T09:56:18.864Z,49.20
2019-05-14T09:58:49.677Z,48.80
2019-05-14T10:01:19.547Z,48.80
2019-05-14T10:03:49.574Z,49.20
2019-05-14T10:06:20.678Z,49.30
2019-05-14T10:08:49.939Z,48.70
2019-05-14T10:11:19.113Z,48.80
2019-05-14T10:13:48.527Z,48.00
2019-05-14T10:16:18.823Z,47.50
2019-05-14T10:18:49.782Z,47.90
2019-05-14T10:21:19.310Z,48.50
2019-05-14T10:23:48.473Z,48.00
2019-05-14T10:26:18.597Z,47.80
2019-05-14T10:28:48.481Z,47.50
2019-05-14T10:31:18.382Z,47.70
2019-05-14T10:33:48.586Z,47.00
2019-05-14T10:36:19.250Z,47.60
2019-05-14T10:38:48.653Z,47.90
2019-05-14T10:41:18.426Z,46.70
2019-05-14T10:43:49.686Z,46.40
2019-05-14T10:46:19.299Z,46.70
2019-05-14T10:48:48.641Z,47.00
2019-05-14T10:51:18.156Z,46.80
2019-05-14T10:53:48.889Z,47.00
2019-05-14T10:56:19.326Z,47.00
2019-05-14T10:58:49.218Z,47.30
2019-05-14T11:01:22.501Z,46.30
2019-05-14T11:03:49.212Z,47.00
2019-05-14T11:06:18.909Z,46.90
2019-05-14T11:08:49.103Z,46.60
2019-05-14T11:11:18.721Z,47.00
2019-05-14T11:13:47.998Z,46.40
2019-05-14T11:16:19.020Z,46.70
2019-05-14T11:18:49.683Z,46.00
2019-05-14T11:21:26.126Z,46.40
2019-05-14T11:23:49.502Z,46.80
2019-05-14T11:26:18.730Z,47.60
2019-05-14T11:28:49.189Z,45.90
2019-05-14T11:31:19.230Z,46.50
2019-05-14T11:33:49.639Z,46.40
2019-05-14T11:36:19.195Z,46.50
2019-05-14T11:38:50.822Z,46.60
2019-05-14T11:41:19.518Z,46.20
2019-05-14T11:43:49.529Z,45.10
2019-05-14T11:46:33.108Z,45.50
2019-05-14T11:48:49.662Z,45.50
2019-05-14T11:51:23.783Z,45.40
2019-05-14T11:53:49.776Z,45.70
2019-05-14T11:56:19.577Z,45.50
2019-05-14T11:58:48.921Z,45.50
2019-05-14T12:01:18.899Z,46.10
2019-05-14T12:03:50.400Z,45.10
2019-05-14T12:06:19.226Z,45.20
2019-05-14T12:08:48.362Z,45.60
2019-05-14T12:11:19.218Z,44.80
2019-05-14T12:13:48.869Z,45.20
2019-05-14T12:16:18.066Z,45.30
2019-05-14T12:18:48.341Z,45.20
2019-05-14T12:21:17.708Z,45.40
2019-05-14T12:23:46.839Z,44.70
2019-05-14T12:26:18.848Z,44.50
2019-05-14T12:28:49.158Z,44.40
2019-05-14T12:31:17.531Z,44.60
2019-05-14T12:33:48.847Z,44.70
2019-05-14T12:36:19.276Z,44.70
2019-05-14T12:38:48.318Z,44.50
2019-05-14T12:41:19.347Z,44.40
2019-05-14T12:43:48.286Z,44.30
2019-05-14T12:46:19.843Z,44.10
2019-05-14T12:48:49.471Z,44.30
2019-05-14T12:51:18.865Z,44.30
2019-05-14T12:53:48.736Z,44.90
2019-05-14T12:56:18.767Z,44.30
2019-05-14T12:58:49.000Z,44.20
2019-05-14T13:01:19.950Z,44.60
2019-05-14T13:03:49.151Z,44.80
2019-05-14T13:06:19.239Z,44.50
2019-05-14T13:08:49.119Z,44.20
2019-05-14T13:11:18.589Z,44.50
2019-05-14T13:13:49.014Z,43.70
2019-05-14T13:16:19.309Z,43.80
2019-05-14T13:18:49.833Z,42.70
2019-05-14T13:21:19.597Z,44.00
2019-05-14T13:23:48.896Z,43.80
2019-05-14T13:26:18.867Z,44.10
2019-05-14T13:28:50.845Z,43.30
2019-05-14T13:31:19.225Z,43.60
2019-05-14T13:33:49.053Z,43.40
2019-05-14T13:36:20.202Z,43.90
2019-05-14T13:38:49.315Z,43.90
2019-05-14T13:41:20.036Z,43.20
2019-05-14T13:43:50.378Z,43.10
2019-05-14T13:46:19.852Z,42.70
2019-05-14T13:48:49.831Z,42.90
2019-05-14T13:51:19.660Z,42.40
2019-05-14T13:53:49.934Z,43.10
2019-05-14T13:56:19.220Z,43.60
2019-05-14T13:58:49.085Z,43.30
2019-05-14T14:01:19.333Z,43.20
2019-05-14T14:04:02.430Z,42.60
2019-05-14T14:06:20.715Z,43.40
2019-05-14T14:08:50.195Z,43.10
2019-05-14T14:11:19.568Z,42.90
2019-05-14T14:13:49.119Z,43.00
2019-05-14T14:16:19.596Z,42.40
2019-05-14T14:18:50.126Z,42.30
2019-05-14T14:21:19.853Z,42.80
2019-05-14T14:23:49.753Z,42.60
2019-05-14T14:26:19.090Z,42.90
2019-05-14T14:28:49.431Z,41.60
2019-05-14T14:31:19.129Z,43.10
2019-05-14T14:33:48.847Z,43.20
2019-05-14T14:36:19.989Z,42.90
2019-05-14T14:38:49.678Z,42.20
2019-05-14T14:41:19.581Z,41.90
2019-05-14T14:43:53.590Z,42.40
2019-05-14T14:46:19.975Z,42.50
2019-05-14T14:48:49.679Z,42.40
2019-05-14T14:51:19.580Z,42.50
2019-05-14T14:53:58.820Z,42.20
2019-05-14T14:56:19.721Z,42.50
2019-05-14T14:58:49.497Z,42.10
2019-05-14T15:01:19.681Z,42.60
2019-05-14T15:03:50.379Z,42.60
2019-05-14T15:06:19.775Z,42.10
2019-05-14T15:08:49.758Z,41.70
2019-05-14T15:11:19.070Z,42.60
2019-05-14T15:13:48.449Z,42.60
2019-05-14T15:16:20.111Z,42.80
2019-05-14T15:18:49.783Z,42.60
2019-05-14T15:21:19.428Z,42.10
2019-05-14T15:24:05.552Z,41.90
2019-05-14T15:26:19.642Z,41.50
2019-05-14T15:28:49.401Z,41.40
2019-05-14T15:31:19.293Z,40.60
2019-05-14T15:33:50.933Z,40.40
2019-05-14T15:36:19.903Z,41.20
2019-05-14T15:38:49.134Z,42.40
2019-05-14T15:41:19.974Z,41.00
2019-05-14T15:43:49.038Z,41.70
2019-05-14T15:46:18.673Z,41.80
2019-05-14T15:48:48.803Z,40.70
2019-05-14T15:51:19.632Z,41.50
2019-05-14T15:54:05.544Z,41.60
2019-05-14T15:56:19.744Z,41.40
2019-05-14T15:58:48.830Z,41.40
2019-05-14T16:01:19.314Z,41.10
2019-05-14T16:03:48.680Z,40.30
2019-05-14T16:06:19.317Z,40.90
2019-05-14T16:08:48.943Z,41.20
2019-05-14T16:11:18.768Z,41.60
2019-05-14T16:13:49.288Z,41.40
2019-05-14T16:16:19.390Z,41.30
2019-05-14T16:18:48.944Z,40.50
2019-05-14T16:21:18.399Z,40.70
2019-05-14T16:23:47.524Z,41.40
2019-05-14T16:26:18.775Z,41.10
2019-05-14T16:28:47.380Z,41.00
2019-05-14T16:31:18.405Z,41.30
2019-05-14T16:33:49.345Z,41.30
2019-05-14T16:36:18.484Z,40.40
2019-05-14T16:38:48.441Z,41.30
2019-05-14T16:41:18.459Z,41.10
2019-05-14T16:43:49.421Z,40.60
2019-05-14T16:46:18.620Z,40.60
2019-05-14T16:48:48.844Z,40.90
2019-05-14T16:51:19.317Z,40.10
2019-05-14T16:53:48.923Z,40.30
2019-05-14T16:56:19.114Z,40.70
2019-05-14T16:58:48.576Z,40.60
2019-05-14T17:01:19.194Z,39.90
2019-05-14T17:03:49.574Z,40.20
2019-05-14T17:06:18.984Z,40.10
2019-05-14T17:08:48.920Z,40.80
2019-05-14T17:11:18.452Z,40.00
2019-05-14T17:13:48.892Z,40.40
2019-05-14T17:16:19.562Z,40.70
2019-05-14T17:18:48.973Z,40.70
2019-05-14T17:21:18.383Z,40.50
2019-05-14T17:23:48.892Z,40.80
2019-05-14T17:26:18.451Z,40.20
2019-05-14T17:28:48.843Z,40.90
2019-05-14T17:31:19.089Z,40.60
2019-05-14T17:33:49.289Z,41.40
2019-05-14T17:36:18.915Z,41.20
2019-05-14T17:38:49.131Z,41.70
2019-05-14T17:41:19.500Z,40.80
2019-05-14T17:43:49.501Z,40.60
2019-05-14T17:46:18.845Z,40.90
2019-05-14T17:48:48.614Z,40.60
2019-05-14T17:51:18.284Z,40.30
2019-05-14T17:53:49.362Z,40.30
2019-05-14T17:56:19.125Z,40.10
2019-05-14T17:58:49.197Z,39.80
2019-05-14T18:01:18.501Z,39.50
2019-05-14T18:03:49.047Z,39.60
2019-05-14T18:06:19.014Z,39.30
2019-05-14T18:08:48.250Z,39.50
2019-05-14T18:11:19.130Z,39.70
2019-05-14T18:13:48.603Z,39.70
2019-05-14T18:16:19.124Z,39.70
2019-05-14T18:18:49.340Z,39.40
2019-05-14T18:21:18.982Z,39.40
2019-05-14T18:23:49.158Z,39.10
2019-05-14T18:26:19.010Z,38.80
2019-05-14T18:28:48.349Z,38.70
2019-05-14T18:31:20.326Z,38.60
2019-05-14T18:33:49.154Z,38.50
2019-05-14T18:36:19.220Z,38.60
2019-05-14T18:38:49.323Z,38.60
2019-05-14T18:41:19.124Z,38.50
2019-05-14T18:43:48.496Z,38.70
2019-05-14T18:46:19.248Z,38.70
2019-05-14T18:48:48.854Z,38.80
2019-05-14T18:51:19.744Z,38.50
2019-05-14T18:53:49.204Z,38.90
2019-05-14T18:56:24.034Z,38.90
2019-05-14T18:58:49.196Z,39.00
2019-05-14T19:01:19.642Z,39.40
2019-05-14T19:03:49.544Z,39.10
2019-05-14T19:06:19.082Z,39.10
2019-05-14T19:08:48.525Z,39.30
2019-05-14T19:11:17.904Z,39.60
2019-05-14T19:13:48.317Z,39.70
2019-05-14T19:16:17.694Z,40.00
2019-05-14T19:18:48.728Z,39.80
2019-05-14T19:21:17.626Z,39.80
2019-05-14T19:23:48.969Z,40.30
2019-05-14T19:26:31.577Z,40.00
2019-05-14T19:28:48.632Z,40.30
2019-05-14T19:31:18.365Z,40.20
2019-05-14T19:33:48.783Z,40.10
2019-05-14T19:36:18.743Z,40.60
2019-05-14T19:38:48.227Z,40.30
2019-05-14T19:41:20.934Z,40.40
2019-05-14T19:43:48.314Z,40.70
2019-05-14T19:46:17.437Z,41.00
2019-05-14T19:48:48.375Z,41.00
2019-05-14T19:51:18.786Z,41.10
2019-05-14T19:53:48.886Z,41.30
2019-05-14T19:56:18.825Z,41.50
2019-05-14T19:58:47.946Z,41.50
2019-05-14T20:01:19.192Z,41.70
2019-05-14T20:03:47.892Z,42.00
2019-05-14T20:06:18.726Z,42.10
2019-05-14T20:08:48.265Z,42.00
2019-05-14T20:11:19.096Z,42.30
2019-05-14T20:13:48.578Z,42.30
2019-05-14T20:16:18.449Z,42.30
2019-05-14T20:18:48.811Z,42.50
2019-05-14T20:21:18.121Z,42.40
2019-05-14T20:23:48.102Z,42.90
2019-05-14T20:26:17.469Z,43.30
2019-05-14T20:28:48.385Z,43.00
2019-05-14T20:31:18.132Z,43.20
2019-05-14T20:33:48.548Z,43.70
2019-05-14T20:36:18.799Z,43.70
2019-05-14T20:38:48.216Z,43.90
2019-05-14T20:41:18.030Z,44.10
2019-05-14T20:43:47.992Z,44.10
2019-05-14T20:46:18.606Z,44.00
2019-05-14T20:48:47.952Z,44.00
2019-05-14T20:51:18.545Z,43.70
2019-05-14T20:53:48.747Z,43.90
2019-05-14T20:56:19.003Z,44.20
2019-05-14T20:58:48.378Z,45.30
2019-05-14T21:01:18.437Z,44.40
2019-05-14T21:03:48.309Z,44.30
2019-05-14T21:06:18.838Z,44.90
2019-05-14T21:08:49.040Z,45.60
2019-05-14T21:11:19.035Z,44.90
2019-05-14T21:13:50.420Z,44.60
2019-05-14T21:16:19.214Z,45.10
2019-05-14T21:18:48.884Z,44.90
2019-05-14T21:21:18.581Z,45.10
2019-05-14T21:23:49.041Z,45.40
2019-05-14T21:26:19.385Z,46.00
2019-05-14T21:28:48.823Z,45.70
2019-05-14T21:31:18.229Z,46.50
2019-05-14T21:33:48.985Z,45.80
2019-05-14T21:36:19.398Z,46.80
2019-05-14T21:38:49.215Z,46.00
2019-05-14T21:41:20.555Z,47.00
2019-05-14T21:43:49.380Z,47.20
2019-05-14T21:46:19.454Z,47.50
2019-05-14T21:48:48.735Z,47.60
2019-05-14T21:51:18.143Z,47.10
2019-05-14T21:53:48.297Z,47.20
2019-05-14T21:56:21.268Z,46.70
2019-05-14T21:58:48.352Z,46.70
2019-05-14T22:01:18.795Z,47.10
2019-05-14T22:03:48.574Z,47.30
2019-05-14T22:06:18.320Z,47.60
2019-05-14T22:08:48.804Z,47.80
2019-05-14T22:11:18.879Z,48.50
2019-05-14T22:13:49.632Z,48.10
2019-05-14T22:16:19.015Z,48.10
2019-05-14T22:18:48.456Z,49.00
2019-05-14T22:21:18.402Z,48.00
2019-05-14T22:23:48.173Z,48.00
2019-05-14T22:26:18.638Z,47.40
2019-05-14T22:28:48.019Z,47.60
2019-05-14T22:31:19.296Z,47.80
2019-05-14T22:33:48.051Z,47.80
2019-05-14T22:36:21.398Z,47.90
2019-05-14T22:38:49.477Z,47.70
2019-05-14T22:41:18.603Z,47.70
2019-05-14T22:43:51.105Z,47.40
2019-05-14T22:46:18.508Z,47.00
2019-05-14T22:48:51.313Z,47.30
2019-05-14T22:51:18.447Z,47.40
2019-05-14T22:53:49.440Z,46.80
2019-05-14T22:56:18.433Z,47.00
2019-05-14T22:58:48.849Z,47.10
2019-05-14T23:01:18.591Z,47.00
2019-05-14T23:03:48.981Z,47.00
2019-05-14T23:06:18.856Z,46.60
2019-05-14T23:08:48.842Z,46.70
2019-05-14T23:11:19.699Z,46.80
2019-05-14T23:13:49.083Z,46.60
2019-05-14T23:16:30.922Z,46.60
2019-05-14T23:18:49.001Z,47.00
2019-05-14T23:21:18.062Z,46.80
2019-05-14T23:23:47.226Z,46.90
2019-05-14T23:26:16.305Z,46.80
2019-05-14T23:28:46.087Z,46.90
2019-05-14T23:31:16.247Z,46.60
2019-05-14T23:33:45.351Z,46.30
2019-05-14T23:36:14.654Z,47.00
2019-05-14T23:38:45.012Z,47.00
2019-05-14T23:41:14.112Z,47.20
2019-05-14T23:43:43.187Z,47.10
2019-05-14T23:46:12.259Z,46.90
2019-05-14T23:48:41.378Z,47.00
2019-05-14T23:51:10.457Z,47.10
2019-05-14T23:53:39.561Z,46.90
2019-05-14T23:56:08.945Z,46.80
2019-05-14T23:58:38.372Z,46.80
